Time;durP1;ratioP1;P1;durP2;ratioP2;P2;SDS_P1;SDS_P2;PMS_P1;PMS_P2;Temp;Humidity;BMP_temperature;BMP_pressure;BME280_temperature;BME280_humidity;BME280_pressure;Samples;Min_cycle;Max_cycle;Signal;HPM_P1;HPM_P2
2021/03/12 00:02:03;;;;;;;;;;;;;;;21.12;31.27;101639.03;5078074;28;784;-56
2021/03/12 00:04:28;;;;;;;;;;;;;;;20.30;32.77;101630.97;5077823;28;1914;-57
2021/03/12 00:06:54;;;;;;;;;;;;;;;20.21;32.69;101625.19;5077967;28;874;-56
2021/03/12 00:09:19;;;;;;;;;;;;;;;19.56;34.10;101633.09;5071160;28;970;-55
2021/03/12 00:11:45;;;;;;;;;;;;;;;19.03;35.09;101635.97;5057808;28;847;-53
2021/03/12 00:14:10;;;;;;;;;;;;;;;20.03;32.94;101623.81;5057969;28;787;-56
2021/03/12 00:16:36;;;;;;;;;;;;;;;20.35;32.59;101623.50;5057816;28;747;-57
2021/03/12 00:19:02;;;;;;;;;;;;;;;20.04;33.11;101614.44;5055952;28;1118;-57
2021/03/12 00:21:27;;;;;;;;;;;;;;;19.73;33.63;101606.13;5040210;28;1104;-55
2021/03/12 00:23:53;;;;;;;;;;;;;;;19.08;34.76;101597.41;5060556;28;999;-52
2021/03/12 00:26:19;;;;;;;;;;;;;;;20.01;33.25;101601.19;5059382;28;1902;-50
2021/03/12 00:28:44;;;;;;;;;;;;;;;20.54;31.95;101613.78;5077538;28;760;-52
2021/03/12 00:31:09;;;;;;;;;;;;;;;20.04;32.99;101606.16;5077468;28;829;-55
2021/03/12 00:33:36;;;;;;;;;;;;;;;19.81;33.41;101600.09;5076007;28;1182;-55
2021/03/12 00:36:02;;;;;;;;;;;;;;;19.01;35.03;101597.66;5040192;28;1149;-53
2021/03/12 00:38:27;;;;;;;;;;;;;;;19.94;33.11;101597.88;5057414;28;764;-56
2021/03/12 00:40:57;;;;;;;;;;;;;;;20.61;31.82;101600.53;5058186;28;967;-50
2021/03/12 00:43:25;;;;;;;;;;;;;;;20.06;32.82;101587.34;5077386;28;783;-56
2021/03/12 00:45:55;;;;;;;;;;;;;;;19.98;33.00;101574.94;5058841;28;1982;-55
2021/03/12 00:48:21;;;;;;;;;;;;;;;19.23;34.25;101571.84;5076896;28;847;-55
2021/03/12 00:50:46;;;;;;;;;;;;;;;19.85;33.39;101555.38;5077217;28;783;-52
2021/03/12 00:53:19;;;;;;;;;;;;;;;20.59;31.87;101556.56;5058950;28;1182;-57
2021/03/12 00:55:44;;;;;;;;;;;;;;;20.00;32.87;101555.34;5058359;28;1100;-54
2021/03/12 00:58:13;;;;;;;;;;;;;;;19.95;33.23;101553.44;5039394;28;1127;-55
2021/03/12 01:00:38;;;;;;;;;;;;;;;19.21;34.60;101543.69;5039455;28;1042;-54
2021/03/12 01:03:11;;;;;;;;;;;;;;;20.12;32.74;101541.25;5056496;28;1257;-51
2021/03/12 01:05:38;;;;;;;;;;;;;;;20.42;32.13;101536.75;5039249;28;1967;-49
2021/03/12 01:08:05;;;;;;;;;;;;;;;20.02;32.90;101544.88;5039623;28;1081;-54
2021/03/12 01:10:32;;;;;;;;;;;;;;;19.77;33.14;101537.41;5072998;28;983;-53
2021/03/12 01:12:58;;;;;;;;;;;;;;;19.09;34.51;101538.44;5059047;28;1284;-53
2021/03/12 01:15:24;;;;;;;;;;;;;;;19.89;33.42;101528.88;5058808;28;837;-51
2021/03/12 01:17:52;;;;;;;;;;;;;;;20.55;31.79;101525.09;5058802;28;1103;-51
2021/03/12 01:20:19;;;;;;;;;;;;;;;20.02;32.75;101528.31;5076686;28;803;-55
2021/03/12 01:22:46;;;;;;;;;;;;;;;19.85;33.02;101522.25;5058928;28;1119;-52
2021/03/12 01:25:12;;;;;;;;;;;;;;;19.15;34.43;101510.63;5044380;28;1963;-54
2021/03/12 01:27:39;;;;;;;;;;;;;;;19.67;33.45;101517.00;5022683;28;1265;-51
2021/03/12 01:30:12;;;;;;;;;;;;;;;20.47;32.05;101509.13;5022757;28;1152;-50
2021/03/12 01:32:37;;;;;;;;;;;;;;;19.98;32.87;101516.16;5056253;28;1167;-51
2021/03/12 01:35:03;;;;;;;;;;;;;;;19.93;32.85;101521.69;5050907;28;1306;-53
2021/03/12 01:37:34;;;;;;;;;;;;;;;19.26;34.06;101510.63;5058699;28;1254;-52
2021/03/12 01:40:02;;;;;;;;;;;;;;;19.82;33.15;101516.19;5062737;28;1279;-53
2021/03/12 01:42:33;;;;;;;;;;;;;;;20.57;31.74;101511.84;5038676;28;1123;-56
2021/03/12 01:44:59;;;;;;;;;;;;;;;19.98;32.70;101513.41;5038391;28;1926;-55
2021/03/12 01:47:25;;;;;;;;;;;;;;;19.98;32.92;101503.19;5056223;28;831;-56
2021/03/12 01:49:50;;;;;;;;;;;;;;;19.25;34.25;101498.78;5056525;28;859;-55
2021/03/12 01:52:16;;;;;;;;;;;;;;;19.64;33.45;101489.09;5038445;28;1090;-55
2021/03/12 01:54:41;;;;;;;;;;;;;;;20.50;31.92;101478.16;5031106;28;1127;-56
2021/03/12 01:57:12;;;;;;;;;;;;;;;19.92;32.60;101486.91;5058457;28;1222;-57
2021/03/12 02:00:04;;;;;;;;;;;;;;;19.84;33.07;101488.31;5058013;28;1118;-56
2021/03/12 02:02:41;;;;;;;;;;;;;;;19.20;34.02;101475.88;5076399;28;720;-57
2021/03/12 02:05:21;;;;;;;;;;;;;;;20.04;32.73;101481.91;5057889;28;1918;-55
2021/03/12 02:07:48;;;;;;;;;;;;;;;20.48;31.70;101483.97;5076349;28;847;-56
2021/03/12 02:10:34;;;;;;;;;;;;;;;19.87;32.81;101487.75;5058251;28;973;-52
2021/03/12 02:13:18;;;;;;;;;;;;;;;19.60;33.52;101488.84;5021704;28;1218;-61
2021/03/12 02:15:50;;;;;;;;;;;;;;;19.23;34.43;101483.59;5055971;28;813;-58
2021/03/12 02:18:19;;;;;;;;;;;;;;;20.17;32.64;101486.84;5055862;28;814;-55
2021/03/12 02:21:04;;;;;;;;;;;;;;;20.14;32.53;101486.56;5022247;28;1223;-53
2021/03/12 02:23:45;;;;;;;;;;;;;;;19.95;32.71;101478.91;5038335;28;1207;-56
2021/03/12 02:26:31;;;;;;;;;;;;;;;19.30;34.16;101473.94;5037684;28;1910;-55
2021/03/12 02:29:01;;;;;;;;;;;;;;;19.36;33.91;101474.78;5038212;28;1659;-58
2021/03/12 02:31:32;;;;;;;;;;;;;;;20.34;32.18;101461.66;5054685;28;1191;-49
2021/03/12 02:33:57;;;;;;;;;;;;;;;20.12;32.21;101464.78;5041825;28;1326;-57
2021/03/12 02:36:23;;;;;;;;;;;;;;;19.93;32.84;101463.72;5075852;28;748;-58
2021/03/12 02:38:57;;;;;;;;;;;;;;;19.58;33.33;101457.13;5055379;28;1002;-55
2021/03/12 02:41:24;;;;;;;;;;;;;;;19.77;33.01;101444.41;5038080;28;1215;-58
2021/03/12 02:43:53;;;;;;;;;;;;;;;20.48;31.85;101447.22;5038074;28;1469;-53
2021/03/12 02:46:24;;;;;;;;;;;;;;;19.94;32.62;101449.63;5037872;28;1927;-52
2021/03/12 02:48:52;;;;;;;;;;;;;;;19.87;32.74;101442.78;5025474;28;1553;-53
2021/03/12 02:51:19;;;;;;;;;;;;;;;19.27;34.00;101451.63;5041825;28;838;-53
2021/03/12 02:53:45;;;;;;;;;;;;;;;19.55;33.33;101463.19;5042875;28;960;-54
2021/03/12 02:56:22;;;;;;;;;;;;;;;20.41;31.75;101466.88;5046771;28;1358;-56
2021/03/12 02:58:49;;;;;;;;;;;;;;;19.94;32.87;101468.97;5061715;28;1162;-53
2021/03/12 03:01:25;;;;;;;;;;;;;;;19.88;32.75;101449.91;5046292;28;883;-53
2021/03/12 03:04:17;;;;;;;;;;;;;;;19.20;34.12;101445.56;5063819;28;1981;-55
2021/03/12 03:06:56;;;;;;;;;;;;;;;20.11;32.29;101454.81;5061155;28;1360;-52
2021/03/12 03:09:22;;;;;;;;;;;;;;;20.31;31.89;101453.09;5053504;28;1038;-50
2021/03/12 03:11:48;;;;;;;;;;;;;;;20.00;32.46;101454.03;5024160;28;1212;-52
2021/03/12 03:14:14;;;;;;;;;;;;;;;19.68;32.94;101448.81;5040857;28;1383;-52
2021/03/12 03:16:40;;;;;;;;;;;;;;;19.23;34.16;101436.72;5041281;28;780;-53
2021/03/12 03:19:06;;;;;;;;;;;;;;;20.12;32.47;101434.41;5040577;28;1238;-49
2021/03/12 03:21:31;;;;;;;;;;;;;;;20.42;31.78;101437.31;5040994;28;773;-52
2021/03/12 03:23:57;;;;;;;;;;;;;;;20.03;32.63;101447.13;5044333;28;1147;-50
2021/03/12 03:26:24;;;;;;;;;;;;;;;19.56;33.24;101451.03;5061177;28;1927;-52
2021/03/12 03:28:53;;;;;;;;;;;;;;;19.17;34.12;101435.06;5078805;28;767;-53
2021/03/12 03:31:22;;;;;;;;;;;;;;;20.10;32.31;101420.03;5060641;28;1415;-49
2021/03/12 03:33:47;;;;;;;;;;;;;;;20.47;31.81;101402.19;5075130;28;1204;-52
2021/03/12 03:36:13;;;;;;;;;;;;;;;20.08;32.21;101405.69;5040593;28;1221;-53
2021/03/12 03:38:39;;;;;;;;;;;;;;;19.68;33.09;101401.91;5059327;28;963;-53
2021/03/12 03:41:05;;;;;;;;;;;;;;;19.28;33.98;101409.16;5060773;28;1344;-51
2021/03/12 03:43:31;;;;;;;;;;;;;;;20.06;32.49;101402.38;5060426;28;792;-52
2021/03/12 03:46:03;;;;;;;;;;;;;;;20.49;31.41;101391.69;5060732;28;1918;-51
2021/03/12 03:48:41;;;;;;;;;;;;;;;20.00;32.30;101395.25;5045924;28;1389;-49
2021/03/12 03:51:11;;;;;;;;;;;;;;;19.67;32.94;101397.53;5060164;28;1406;-51
2021/03/12 03:53:39;;;;;;;;;;;;;;;19.31;33.59;101392.88;5059019;28;1278;-58
2021/03/12 03:56:05;;;;;;;;;;;;;;;20.10;32.24;101395.19;5040651;28;1290;-58
2021/03/12 03:58:34;;;;;;;;;;;;;;;20.34;31.70;101400.91;5023828;28;1798;-56
2021/03/12 04:00:59;;;;;;;;;;;;;;;19.99;32.39;101401.84;5024262;28;1310;-56
2021/03/12 04:03:25;;;;;;;;;;;;;;;19.44;33.45;101402.50;5023777;28;1136;-54
2021/03/12 04:05:57;;;;;;;;;;;;;;;19.04;34.28;101401.44;5024798;28;1981;-52
2021/03/12 04:08:23;;;;;;;;;;;;;;;19.93;32.72;101408.53;5040315;28;887;-57
2021/03/12 04:10:49;;;;;;;;;;;;;;;20.56;31.55;101405.19;5055464;28;1213;-54
2021/03/12 04:13:15;;;;;;;;;;;;;;;19.93;32.48;101406.56;5056517;28;1253;-57
2021/03/12 04:15:41;;;;;;;;;;;;;;;19.85;32.66;101411.84;5056457;28;1296;-59
2021/03/12 04:18:07;;;;;;;;;;;;;;;19.17;33.88;101410.25;5056352;28;1069;-57
2021/03/12 04:20:37;;;;;;;;;;;;;;;19.70;32.91;101399.72;5056616;28;1251;-58
2021/03/12 04:23:03;;;;;;;;;;;;;;;20.49;31.37;101394.44;5056690;28;1174;-58
2021/03/12 04:25:32;;;;;;;;;;;;;;;19.93;32.42;101398.28;5073932;28;1980;-57
2021/03/12 04:27:57;;;;;;;;;;;;;;;19.93;32.44;101405.75;5060395;28;1170;-53
2021/03/12 04:30:23;;;;;;;;;;;;;;;19.26;33.55;101395.63;5059978;28;1274;-58
2021/03/12 04:32:50;;;;;;;;;;;;;;;19.64;33.06;101400.81;5043097;28;1176;-59
2021/03/12 04:35:16;;;;;;;;;;;;;;;20.38;31.73;101394.78;5045128;28;1119;-57
2021/03/12 04:37:43;;;;;;;;;;;;;;;19.87;32.26;101382.06;5040186;28;1164;-58
2021/03/12 04:40:12;;;;;;;;;;;;;;;19.87;32.40;101385.63;5039334;28;1422;-61
2021/03/12 04:42:44;;;;;;;;;;;;;;;19.24;33.79;101386.00;5039561;28;938;-60
2021/03/12 04:45:11;;;;;;;;;;;;;;;20.03;32.09;101389.16;5039464;28;1983;-59
2021/03/12 04:47:40;;;;;;;;;;;;;;;20.59;31.13;101374.22;5023679;28;1335;-59
2021/03/12 04:50:07;;;;;;;;;;;;;;;19.96;32.36;101369.31;5039661;28;1217;-58
2021/03/12 04:52:33;;;;;;;;;;;;;;;19.75;32.64;101352.78;5022607;28;1306;-59
2021/03/12 04:54:59;;;;;;;;;;;;;;;19.28;33.38;101365.06;5033787;28;1194;-57
2021/03/12 04:57:26;;;;;;;;;;;;;;;20.00;32.28;101356.59;5042450;28;1495;-58
2021/03/12 05:00:01;;;;;;;;;;;;;;;20.39;31.36;101360.56;5058929;28;1182;-59
2021/03/12 05:02:37;;;;;;;;;;;;;;;19.86;32.42;101356.38;5043828;28;1569;-55
2021/03/12 05:05:08;;;;;;;;;;;;;;;19.62;32.62;101358.91;5059053;28;1977;-57
2021/03/12 05:07:33;;;;;;;;;;;;;;;19.28;33.74;101373.31;5076704;28;827;-59
2021/03/12 05:10:13;;;;;;;;;;;;;;;20.17;31.82;101375.56;5039964;28;1550;-59
2021/03/12 05:12:38;;;;;;;;;;;;;;;20.47;31.29;101377.34;5022241;28;1907;-54
2021/03/12 05:15:05;;;;;;;;;;;;;;;20.04;31.76;101377.00;5041821;28;1205;-60
2021/03/12 05:17:31;;;;;;;;;;;;;;;19.66;32.50;101368.28;5054312;28;1218;-66
2021/03/12 05:19:58;;;;;;;;;;;;;;;19.32;33.04;101368.88;5059042;28;1355;-61
2021/03/12 05:22:23;;;;;;;;;;;;;;;20.25;31.61;101361.16;5058577;28;1123;-60
2021/03/12 05:24:49;;;;;;;;;;;;;;;20.32;31.35;101360.84;5052476;28;1909;-64
2021/03/12 05:27:14;;;;;;;;;;;;;;;19.89;32.40;101350.28;5076531;28;799;-58
2021/03/12 05:29:46;;;;;;;;;;;;;;;19.61;32.89;101358.06;5058372;28;1192;-58
2021/03/12 05:32:12;;;;;;;;;;;;;;;19.52;32.92;101356.16;5063702;28;1362;-57
2021/03/12 05:34:41;;;;;;;;;;;;;;;20.36;31.60;101348.13;5066369;28;1111;-59
2021/03/12 05:37:11;;;;;;;;;;;;;;;20.18;31.49;101352.38;5039029;28;1222;-54
2021/03/12 05:39:38;;;;;;;;;;;;;;;19.94;32.23;101363.25;5047645;28;1234;-63
2021/03/12 05:42:05;;;;;;;;;;;;;;;19.50;32.99;101364.72;5057948;28;882;-57
2021/03/12 05:44:36;;;;;;;;;;;;;;;19.39;33.40;101369.44;5042246;28;2022;-57
2021/03/12 05:47:04;;;;;;;;;;;;;;;20.34;31.48;101376.03;5042213;28;1155;-63
2021/03/12 05:49:30;;;;;;;;;;;;;;;20.21;31.59;101373.06;5076198;28;795;-56
2021/03/12 05:51:55;;;;;;;;;;;;;;;19.91;32.40;101367.41;5076141;28;748;-60
2021/03/12 05:54:21;;;;;;;;;;;;;;;19.49;32.99;101366.66;5069548;28;962;-60
2021/03/12 05:56:46;;;;;;;;;;;;;;;19.56;33.13;101369.13;5037584;28;826;-63
2021/03/12 05:59:13;;;;;;;;;;;;;;;20.34;31.71;101369.66;5038120;28;917;-59
2021/03/12 06:01:44;;;;;;;;;;;;;;;20.89;30.54;101375.16;5055189;28;2077;-63
2021/03/12 06:04:12;;;;;;;;;;;;;;;20.76;30.73;101382.16;5021844;28;1387;-59
2021/03/12 06:06:38;;;;;;;;;;;;;;;20.28;31.51;101382.69;5056455;28;2008;-64
2021/03/12 06:09:05;;;;;;;;;;;;;;;19.82;32.52;101369.94;5042213;28;1286;-55
2021/03/12 06:11:31;;;;;;;;;;;;;;;19.34;33.43;101369.44;5058255;28;1174;-59
2021/03/12 06:13:57;;;;;;;;;;;;;;;19.94;32.12;101366.00;5075605;28;911;-59
2021/03/12 06:16:40;;;;;;;;;;;;;;;20.44;31.24;101368.78;5058291;28;1864;-55
2021/03/12 06:19:15;;;;;;;;;;;;;;;19.88;32.35;101361.59;5041821;28;1217;-58
2021/03/12 06:21:42;;;;;;;;;;;;;;;19.69;32.50;101369.66;5078427;28;812;-64
2021/03/12 06:24:21;;;;;;;;;;;;;;;19.22;33.47;101374.41;5055861;28;1400;-66
2021/03/12 06:26:52;;;;;;;;;;;;;;;20.15;32.00;101373.09;5041696;28;1086;-54
2021/03/12 06:29:45;;;;;;;;;;;;;;;20.10;31.71;101375.84;5058608;28;1380;-68
2021/03/12 06:32:55;;;;;;;;;;;;;;;20.00;32.09;101370.41;5043690;28;1507;-61
2021/03/12 06:35:37;;;;;;;;;;;;;;;19.19;33.61;101372.22;5055143;28;1317;-69
2021/03/12 06:38:21;;;;;;;;;;;;;;;19.88;32.54;101367.13;5079804;28;610;-60
2021/03/12 06:41:07;;;;;;;;;;;;;;;20.40;31.23;101379.59;5041551;28;1264;-57
2021/03/12 06:43:42;;;;;;;;;;;;;;;19.94;32.15;101382.56;5041887;28;1293;-59
2021/03/12 06:46:07;;;;;;;;;;;;;;;19.69;32.66;101391.72;5041922;28;1906;-61
2021/03/12 06:48:45;;;;;;;;;;;;;;;19.24;33.62;101388.75;5041676;28;951;-58
2021/03/12 06:51:33;;;;;;;;;;;;;;;20.02;32.02;101395.81;5046051;28;1072;-61
2021/03/12 06:54:06;;;;;;;;;;;;;;;20.41;31.36;101399.75;5045485;28;1525;-57
2021/03/12 06:56:36;;;;;;;;;;;;;;;19.89;32.24;101397.19;5062317;28;1041;-59
2021/03/12 06:59:15;;;;;;;;;;;;;;;19.63;32.82;101393.69;5046484;28;1361;-59
2021/03/12 07:02:03;;;;;;;;;;;;;;;19.17;33.56;101401.97;5056930;28;1709;-62
2021/03/12 07:04:35;;;;;;;;;;;;;;;20.15;32.00;101392.41;5061642;28;1975;-62
2021/03/12 07:07:37;;;;;;;;;;;;;;;20.01;31.99;101383.09;5061460;28;1475;-62
2021/03/12 07:10:10;;;;;;;;;;;;;;;19.79;32.69;101378.75;5042493;28;1418;-62
2021/03/12 07:12:50;;;;;;;;;;;;;;;19.42;33.09;101381.81;5041489;28;1402;-60
2021/03/12 07:15:19;;;;;;;;;;;;;;;19.58;32.99;101385.41;5058272;28;1117;-59
2021/03/12 07:17:55;;;;;;;;;;;;;;;20.51;31.31;101381.19;5041230;28;1436;-59
2021/03/12 07:20:25;;;;;;;;;;;;;;;19.95;32.05;101375.94;5058604;28;1252;-61
2021/03/12 07:22:53;;;;;;;;;;;;;;;19.82;32.33;101372.69;5041396;28;934;-62
2021/03/12 07:25:19;;;;;;;;;;;;;;;19.29;33.36;101377.72;5057570;28;1910;-57
2021/03/12 07:27:50;;;;;;;;;;;;;;;19.83;32.39;101377.06;5025454;28;1470;-59
2021/03/12 07:30:19;;;;;;;;;;;;;;;20.53;31.03;101375.38;5041310;28;1221;-60
2021/03/12 07:32:47;;;;;;;;;;;;;;;20.03;31.95;101371.78;5058254;28;1119;-55
2021/03/12 07:35:16;;;;;;;;;;;;;;;19.98;32.05;101380.91;5039898;28;1156;-60
2021/03/12 07:37:56;;;;;;;;;;;;;;;19.31;33.30;101378.28;5060984;28;1101;-49
2021/03/12 07:40:26;;;;;;;;;;;;;;;19.94;32.29;101382.56;5041609;28;1035;-58
2021/03/12 07:42:53;;;;;;;;;;;;;;;20.54;30.91;101390.00;5023866;28;1429;-59
2021/03/12 07:45:39;;;;;;;;;;;;;;;20.03;31.72;101397.44;5057133;28;1910;-59
2021/03/12 07:48:11;;;;;;;;;;;;;;;19.84;32.27;101388.97;5041906;28;656;-59
2021/03/12 07:50:51;;;;;;;;;;;;;;;19.34;33.23;101396.19;5040837;28;1375;-54
2021/03/12 07:53:22;;;;;;;;;;;;;;;20.20;31.46;101379.69;5024551;28;1161;-59
2021/03/12 07:55:55;;;;;;;;;;;;;;;20.32;31.08;101385.72;5040857;28;1341;-58
2021/03/12 07:58:49;;;;;;;;;;;;;;;19.97;31.95;101382.00;5040430;28;1305;-62
2021/03/12 08:01:16;;;;;;;;;;;;;;;19.49;32.66;101385.97;5058292;28;836;-58
2021/03/12 08:03:47;;;;;;;;;;;;;;;19.27;33.00;101389.03;5041359;28;1327;-62
2021/03/12 08:06:27;;;;;;;;;;;;;;;20.42;31.18;101382.06;5026331;28;1978;-58
2021/03/12 08:09:29;;;;;;;;;;;;;;;20.03;31.81;101377.28;5047212;28;1003;-60
2021/03/12 08:12:08;;;;;;;;;;;;;;;19.83;32.03;101368.78;5045854;28;1342;-58
2021/03/12 08:14:41;;;;;;;;;;;;;;;19.24;33.01;101367.53;5060476;28;1421;-52
2021/03/12 08:17:16;;;;;;;;;;;;;;;19.93;31.91;101358.84;5060526;28;1266;-56
2021/03/12 08:19:49;;;;;;;;;;;;;;;20.30;31.23;101363.06;5060458;28;942;-53
2021/03/12 08:22:28;;;;;;;;;;;;;;;19.90;31.62;101368.50;5061585;28;1056;-49
2021/03/12 08:24:58;;;;;;;;;;;;;;;19.61;32.21;101371.84;5059680;28;2051;-50
2021/03/12 08:27:50;;;;;;;;;;;;;;;19.41;32.83;101369.16;5077375;28;1184;-55
2021/03/12 08:30:24;;;;;;;;;;;;;;;20.43;30.93;101383.72;5078212;28;953;-58
2021/03/12 08:32:53;;;;;;;;;;;;;;;20.09;31.12;101374.22;5059661;28;1329;-48
2021/03/12 08:35:38;;;;;;;;;;;;;;;19.86;31.80;101380.41;5044075;28;1329;-58
2021/03/12 08:38:33;;;;;;;;;;;;;;;19.26;32.88;101384.59;4986558;28;1210;-60
2021/03/12 08:41:40;;;;;;;;;;;;;;;19.82;31.91;101377.34;5056925;28;1004;-54
2021/03/12 08:44:40;;;;;;;;;;;;;;;20.66;30.20;101371.13;5038684;28;1969;-56
2021/03/12 08:47:18;;;;;;;;;;;;;;;20.00;31.41;101373.16;5039660;28;1497;-58
2021/03/12 08:49:48;;;;;;;;;;;;;;;19.85;31.81;101364.94;5039822;28;1191;-58
2021/03/12 08:52:17;;;;;;;;;;;;;;;19.36;32.39;101371.91;5057360;28;1059;-56
2021/03/12 08:54:51;;;;;;;;;;;;;;;19.96;31.60;101369.31;5049859;28;1354;-58
2021/03/12 08:57:18;;;;;;;;;;;;;;;20.59;30.42;101354.06;5059524;28;1630;-57
2021/03/12 08:59:44;;;;;;;;;;;;;;;19.87;31.70;101346.19;5059497;28;1382;-61
2021/03/12 09:02:24;;;;;;;;;;;;;;;19.83;31.68;101343.97;5076909;28;779;-59
2021/03/12 09:05:20;;;;;;;;;;;;;;;19.31;32.29;101336.91;5059238;28;1906;-64
2021/03/12 09:08:06;;;;;;;;;;;;;;;20.20;30.89;101335.50;5059284;28;1390;-56
2021/03/12 09:10:45;;;;;;;;;;;;;;;20.13;30.88;101327.53;5040788;28;1400;-51
2021/03/12 09:13:32;;;;;;;;;;;;;;;19.95;31.24;101329.84;5057560;28;851;-48
2021/03/12 09:16:01;;;;;;;;;;;;;;;19.56;31.99;101310.34;5039403;28;1227;-48
2021/03/12 09:18:27;;;;;;;;;;;;;;;19.54;32.08;101305.13;5039398;28;1536;-50
2021/03/12 09:20:57;;;;;;;;;;;;;;;20.40;30.42;101304.19;5039414;28;1663;-51
2021/03/12 09:23:34;;;;;;;;;;;;;;;20.04;30.96;101308.00;5039031;28;1401;-54
2021/03/12 09:26:00;;;;;;;;;;;;;;;19.81;31.35;101296.50;5056742;28;1910;-59
2021/03/12 09:28:29;;;;;;;;;;;;;;;19.38;32.08;101285.06;5039221;28;975;-56
2021/03/12 09:31:05;;;;;;;;;;;;;;;19.80;31.45;101263.69;5038869;28;1502;-57
2021/03/12 09:33:42;;;;;;;;;;;;;;;20.42;30.30;101258.59;5039427;28;1526;-57
2021/03/12 09:36:28;;;;;;;;;;;;;;;19.88;31.26;101262.25;5058323;28;1298;-64
2021/03/12 09:38:56;;;;;;;;;;;;;;;19.73;31.54;101249.34;5055323;28;1454;-60
2021/03/12 09:41:22;;;;;;;;;;;;;;;19.06;32.82;101239.38;5055794;28;1142;-53
2021/03/12 09:43:59;;;;;;;;;;;;;;;20.23;30.69;101241.91;5056399;28;839;-60
2021/03/12 09:46:28;;;;;;;;;;;;;;;20.04;30.95;101233.47;5055310;28;1906;-53
2021/03/12 09:48:53;;;;;;;;;;;;;;;19.92;31.02;101228.31;5055634;28;1102;-59
2021/03/12 09:51:31;;;;;;;;;;;;;;;19.45;31.76;101226.84;5055089;28;1402;-58
2021/03/12 09:53:57;;;;;;;;;;;;;;;19.29;32.21;101215.03;5055126;28;1280;-59
2021/03/12 09:56:31;;;;;;;;;;;;;;;20.36;30.26;101218.31;5038584;28;1233;-61
2021/03/12 09:59:04;;;;;;;;;;;;;;;20.08;30.87;101214.41;5038688;28;1337;-59
2021/03/12 10:02:04;;;;;;;;;;;;;;;19.91;30.74;101207.31;5056257;28;962;-59
2021/03/12 10:04:47;;;;;;;;;;;;;;;19.28;32.09;101199.63;5038258;28;1987;-62
2021/03/12 10:07:46;;;;;;;;;;;;;;;19.85;31.30;101185.56;5001882;28;1234;-62
2021/03/12 10:10:34;;;;;;;;;;;;;;;20.47;29.87;101188.69;5038507;28;1318;-55
2021/03/12 10:13:05;;;;;;;;;;;;;;;20.00;30.70;101190.97;5039253;28;790;-57
2021/03/12 10:15:39;;;;;;;;;;;;;;;19.77;31.23;101186.97;5022896;28;1248;-50
2021/03/12 10:18:29;;;;;;;;;;;;;;;19.25;32.33;101181.69;5038327;28;1254;-57
2021/03/12 10:20:55;;;;;;;;;;;;;;;20.20;30.39;101173.41;5055470;28;921;-49
2021/03/12 10:23:20;;;;;;;;;;;;;;;20.18;30.30;101168.19;5056393;28;725;-55
2021/03/12 10:25:49;;;;;;;;;;;;;;;20.06;30.60;101167.72;5056925;28;1918;-61
2021/03/12 10:28:15;;;;;;;;;;;;;;;19.65;31.31;101176.25;5076165;28;788;-64
2021/03/12 10:30:42;;;;;;;;;;;;;;;19.10;32.25;101185.34;5076227;28;858;-55
2021/03/12 10:33:08;;;;;;;;;;;;;;;20.05;30.70;101179.91;5057921;28;1143;-59
2021/03/12 10:35:34;;;;;;;;;;;;;;;20.42;30.08;101184.00;5058980;28;1115;-54
2021/03/12 10:38:20;;;;;;;;;;;;;;;20.00;30.65;101174.41;5055966;28;819;-58
2021/03/12 10:40:49;;;;;;;;;;;;;;;19.77;31.41;101168.47;5057590;28;1238;-54
2021/03/12 10:43:18;;;;;;;;;;;;;;;19.19;32.37;101166.28;5076025;28;756;-58
2021/03/12 10:45:45;;;;;;;;;;;;;;;20.21;30.31;101144.69;5076131;28;1984;-60
2021/03/12 10:48:13;;;;;;;;;;;;;;;20.07;30.76;101135.44;5075976;28;740;-58
2021/03/12 10:50:40;;;;;;;;;;;;;;;19.82;30.89;101132.59;5058715;28;1183;-56
2021/03/12 10:53:07;;;;;;;;;;;;;;;19.62;31.47;101143.72;5076017;28;759;-59
2021/03/12 10:55:36;;;;;;;;;;;;;;;19.35;32.00;101139.47;5059519;28;954;-50
2021/03/12 10:58:02;;;;;;;;;;;;;;;20.23;30.39;101141.66;5038072;28;1282;-57
2021/03/12 11:00:27;;;;;;;;;;;;;;;20.15;30.29;101118.25;5055872;28;839;-59
2021/03/12 11:02:56;;;;;;;;;;;;;;;19.95;30.68;101119.22;5055729;28;756;-62
2021/03/12 11:05:25;;;;;;;;;;;;;;;19.58;31.40;101110.38;5056047;28;1913;-61
2021/03/12 11:07:51;;;;;;;;;;;;;;;19.31;32.12;101102.53;5056564;28;748;-53
2021/03/12 11:10:16;;;;;;;;;;;;;;;20.38;30.37;101104.78;5073414;28;994;-62
2021/03/12 11:12:44;;;;;;;;;;;;;;;20.11;30.47;101101.44;5079294;28;851;-58
2021/03/12 11:15:10;;;;;;;;;;;;;;;19.99;30.70;101093.56;5061396;28;866;-61
2021/03/12 11:17:37;;;;;;;;;;;;;;;19.68;31.37;101092.91;5079354;28;804;-56
2021/03/12 11:20:03;;;;;;;;;;;;;;;19.10;32.38;101099.88;5079197;28;1019;-57
2021/03/12 11:22:28;;;;;;;;;;;;;;;20.18;30.42;101101.91;5078948;28;823;-56
2021/03/12 11:24:54;;;;;;;;;;;;;;;20.04;30.72;101094.63;5067687;28;1909;-60
2021/03/12 11:27:19;;;;;;;;;;;;;;;19.94;30.94;101095.53;5059000;28;874;-59
2021/03/12 11:29:45;;;;;;;;;;;;;;;19.68;31.44;101095.69;5058943;28;815;-48
2021/03/12 11:32:10;;;;;;;;;;;;;;;19.43;31.97;101102.19;5032888;28;1263;-59
2021/03/12 11:34:36;;;;;;;;;;;;;;;20.31;30.25;101088.56;5048042;28;1128;-59
2021/03/12 11:37:02;;;;;;;;;;;;;;;20.20;30.32;101087.00;5059010;28;784;-59
2021/03/12 11:39:27;;;;;;;;;;;;;;;19.95;31.04;101092.47;5051140;28;955;-56
2021/03/12 11:41:53;;;;;;;;;;;;;;;19.80;31.22;101090.66;5038568;28;776;-52
2021/03/12 11:44:19;;;;;;;;;;;;;;;19.19;32.33;101091.03;5038963;28;732;-59
2021/03/12 11:46:44;;;;;;;;;;;;;;;19.99;30.91;101079.75;5038674;28;1914;-61
2021/03/12 11:49:09;;;;;;;;;;;;;;;20.36;30.04;101083.00;5038514;28;744;-61
2021/03/12 11:51:36;;;;;;;;;;;;;;;19.88;31.17;101075.44;5038763;28;741;-61
2021/03/12 11:54:01;;;;;;;;;;;;;;;19.79;31.04;101064.16;5042036;28;995;-55
2021/03/12 11:56:27;;;;;;;;;;;;;;;19.14;32.36;101056.88;5058479;28;799;-53
2021/03/12 11:58:53;;;;;;;;;;;;;;;19.93;31.12;101041.44;5058622;28;808;-55
2021/03/12 12:01:19;;;;;;;;;;;;;;;20.60;29.88;101046.28;5058450;28;779;-47
2021/03/12 12:03:45;;;;;;;;;;;;;;;21.19;28.77;101041.38;5058219;28;812;-62
2021/03/12 12:06:10;;;;;;;;;;;;;;;20.52;30.00;101033.91;5058375;28;1910;-61
2021/03/12 12:08:36;;;;;;;;;;;;;;;20.34;30.13;101022.53;5057987;28;987;-55
2021/03/12 12:11:01;;;;;;;;;;;;;;;19.80;30.98;101021.66;5038501;28;776;-51
2021/03/12 12:13:27;;;;;;;;;;;;;;;19.15;32.42;101030.94;5038248;28;775;-54
2021/03/12 12:15:52;;;;;;;;;;;;;;;19.59;31.80;101039.50;5038116;28;816;-55
2021/03/12 12:18:18;;;;;;;;;;;;;;;20.51;29.86;101038.63;5037937;28;768;-61
2021/03/12 12:20:44;;;;;;;;;;;;;;;20.15;30.50;101027.97;5038183;28;820;-63
2021/03/12 12:23:12;;;;;;;;;;;;;;;19.97;30.87;101026.75;5038124;28;768;-61
2021/03/12 12:25:38;;;;;;;;;;;;;;;19.43;31.92;101020.28;5037712;28;1918;-53
2021/03/12 12:28:04;;;;;;;;;;;;;;;19.14;32.42;101021.03;5038064;28;772;-60
2021/03/12 12:30:30;;;;;;;;;;;;;;;20.10;30.85;101005.91;5037854;28;804;-60
2021/03/12 12:32:56;;;;;;;;;;;;;;;20.34;30.39;100999.59;5051671;28;1013;-57
2021/03/12 12:35:23;;;;;;;;;;;;;;;20.03;30.74;101005.44;5057814;28;1092;-51
2021/03/12 12:37:52;;;;;;;;;;;;;;;19.87;31.05;101012.25;5057565;28;763;-60
2021/03/12 12:40:18;;;;;;;;;;;;;;;19.34;32.13;101010.97;5071870;28;963;-57
2021/03/12 12:42:44;;;;;;;;;;;;;;;20.02;30.83;100998.31;5077797;28;830;-56
2021/03/12 12:45:09;;;;;;;;;;;;;;;20.58;29.78;101004.28;5077259;28;1981;-56
2021/03/12 12:47:35;;;;;;;;;;;;;;;20.18;30.52;100993.44;5077564;28;820;-57
2021/03/12 12:50:00;;;;;;;;;;;;;;;19.96;30.80;101000.28;5077502;28;736;-62
2021/03/12 12:52:26;;;;;;;;;;;;;;;19.42;32.00;100988.31;5077272;28;791;-59
2021/03/12 12:54:53;;;;;;;;;;;;;;;19.55;31.94;100994.28;5066544;28;942;-55
2021/03/12 12:57:19;;;;;;;;;;;;;;;20.38;30.49;100981.31;5057236;28;795;-62
2021/03/12 12:59:45;;;;;;;;;;;;;;;20.03;31.09;100988.88;5039570;28;826;-47
2021/03/12 13:02:10;;;;;;;;;;;;;;;19.91;31.33;100978.25;5057175;28;732;-54
2021/03/12 13:04:36;;;;;;;;;;;;;;;19.53;32.01;100977.19;5056948;28;2003;-46
2021/03/12 13:07:02;;;;;;;;;;;;;;;19.38;32.25;100987.22;5057156;28;811;-49
2021/03/12 13:09:28;;;;;;;;;;;;;;;20.40;30.31;100979.09;5064244;28;1024;-59